sensor_id;sensor_type;location;lat;lon;timestamp;temperature;humidity
11132;DHT22;5620;53.570;9.718;2023-01-28T00:01:17;4.20;99.90
11132;DHT22;5620;53.570;9.718;2023-01-28T00:03:43;4.20;99.90
11132;DHT22;5620;53.570;9.718;2023-01-28T00:06:13;4.20;99.90
11132;DHT22;5620;53.570;9.718;2023-01-28T00:08:39;4.20;99.90
11132;DHT22;5620;53.570;9.718;2023-01-28T00:11:06;4.20;99.90
11132;DHT22;5620;53.570;9.718;2023-01-28T00:13:33;4.20;99.90
11132;DHT22;5620;53.570;9.718;2023-01-28T00:16:00;4.20;99.90
11132;DHT22;5620;53.570;9.718;2023-01-28T00:18:27;4.20;99.90
11132;DHT22;5620;53.570;9.718;2023-01-28T00:21:04;4.30;99.90
11132;DHT22;5620;53.570;9.718;2023-01-28T00:23:40;4.30;99.90
11132;DHT22;5620;53.570;9.718;2023-01-28T00:26:11;4.40;99.90
11132;DHT22;5620;53.570;9.718;2023-01-28T00:28:37;4.40;99.90
11132;DHT22;5620;53.570;9.718;2023-01-28T00:31:16;4.40;99.90
11132;DHT22;5620;53.570;9.718;2023-01-28T00:33:43;4.40;99.90
11132;DHT22;5620;53.570;9.718;2023-01-28T00:36:08;4.40;99.90
11132;DHT22;5620;53.570;9.718;2023-01-28T00:38:34;4.40;99.90
11132;DHT22;5620;53.570;9.718;2023-01-28T00:41:12;4.40;99.90
11132;DHT22;5620;53.570;9.718;2023-01-28T00:43:39;4.40;99.90
11132;DHT22;5620;53.570;9.718;2023-01-28T00:46:06;4.40;99.90
11132;DHT22;5620;53.570;9.718;2023-01-28T00:48:33;4.50;99.90
11132;DHT22;5620;53.570;9.718;2023-01-28T00:50:58;4.50;99.90
11132;DHT22;5620;53.570;9.718;2023-01-28T00:53:24;4.40;99.90
11132;DHT22;5620;53.570;9.718;2023-01-28T00:55:50;4.40;99.90
11132;DHT22;5620;53.570;9.718;2023-01-28T00:58:16;4.40;99.90
11132;DHT22;5620;53.570;9.718;2023-01-28T01:00:41;4.40;99.90
11132;DHT22;5620;53.570;9.718;2023-01-28T01:03:07;4.40;99.90
11132;DHT22;5620;53.570;9.718;2023-01-28T01:05:32;4.40;99.90
11132;DHT22;5620;53.570;9.718;2023-01-28T01:07:58;4.40;99.90
11132;DHT22;5620;53.570;9.718;2023-01-28T01:10:24;4.40;99.90
11132;DHT22;5620;53.570;9.718;2023-01-28T01:12:50;4.40;99.90
11132;DHT22;5620;53.570;9.718;2023-01-28T01:15:17;4.40;99.90
11132;DHT22;5620;53.570;9.718;2023-01-28T01:17:46;4.40;99.90
11132;DHT22;5620;53.570;9.718;2023-01-28T01:20:18;4.40;99.90
11132;DHT22;5620;53.570;9.718;2023-01-28T01:22:44;4.40;99.90
11132;DHT22;5620;53.570;9.718;2023-01-28T01:25:11;4.40;99.90
11132;DHT22;5620;53.570;9.718;2023-01-28T01:27:37;4.40;99.90
11132;DHT22;5620;53.570;9.718;2023-01-28T01:30:03;4.40;99.90
11132;DHT22;5620;53.570;9.718;2023-01-28T01:32:30;4.40;99.90
11132;DHT22;5620;53.570;9.718;2023-01-28T01:34:56;4.40;99.90
11132;DHT22;5620;53.570;9.718;2023-01-28T01:37:22;4.40;99.90
11132;DHT22;5620;53.570;9.718;2023-01-28T01:39:48;4.40;99.90
11132;DHT22;5620;53.570;9.718;2023-01-28T01:42:14;4.40;99.90
11132;DHT22;5620;53.570;9.718;2023-01-28T01:44:56;4.40;99.90
11132;DHT22;5620;53.570;9.718;2023-01-28T01:53:00;4.20;99.90
11132;DHT22;5620;53.570;9.718;2023-01-28T01:55:29;4.10;99.90
11132;DHT22;5620;53.570;9.718;2023-01-28T01:57:57;4.00;99.90
11132;DHT22;5620;53.570;9.718;2023-01-28T02:00:24;4.00;99.90
11132;DHT22;5620;53.570;9.718;2023-01-28T02:02:50;4.00;99.90
11132;DHT22;5620;53.570;9.718;2023-01-28T02:05:19;3.80;99.90
11132;DHT22;5620;53.570;9.718;2023-01-28T02:07:47;3.70;99.90
11132;DHT22;5620;53.570;9.718;2023-01-28T02:10:15;3.60;99.90
11132;DHT22;5620;53.570;9.718;2023-01-28T02:12:49;3.60;99.90
11132;DHT22;5620;53.570;9.718;2023-01-28T02:15:23;3.50;99.90
11132;DHT22;5620;53.570;9.718;2023-01-28T02:17:50;3.60;99.90
11132;DHT22;5620;53.570;9.718;2023-01-28T02:20:29;3.50;99.90
11132;DHT22;5620;53.570;9.718;2023-01-28T02:31:28;3.80;99.90
11132;DHT22;5620;53.570;9.718;2023-01-28T02:33:59;3.80;99.90
11132;DHT22;5620;53.570;9.718;2023-01-28T02:36:40;3.80;99.90
11132;DHT22;5620;53.570;9.718;2023-01-28T02:39:12;3.90;99.90
11132;DHT22;5620;53.570;9.718;2023-01-28T02:41:45;4.00;99.90
11132;DHT22;5620;53.570;9.718;2023-01-28T02:44:13;4.00;99.90
11132;DHT22;5620;53.570;9.718;2023-01-28T02:46:39;4.00;99.90
11132;DHT22;5620;53.570;9.718;2023-01-28T02:49:11;3.90;99.90
11132;DHT22;5620;53.570;9.718;2023-01-28T02:52:31;3.90;99.90
11132;DHT22;5620;53.570;9.718;2023-01-28T02:58:36;4.00;99.90
11132;DHT22;5620;53.570;9.718;2023-01-28T03:01:27;4.00;99.90
11132;DHT22;5620;53.570;9.718;2023-01-28T03:07:09;3.90;99.90
11132;DHT22;5620;53.570;9.718;2023-01-28T03:09:48;3.90;99.90
11132;DHT22;5620;53.570;9.718;2023-01-28T03:12:25;3.90;99.90
11132;DHT22;5620;53.570;9.718;2023-01-28T03:15:14;4.00;99.90
11132;DHT22;5620;53.570;9.718;2023-01-28T03:20:49;3.90;99.90
11132;DHT22;5620;53.570;9.718;2023-01-28T03:23:26;3.80;99.90
11132;DHT22;5620;53.570;9.718;2023-01-28T03:26:30;3.80;99.90
11132;DHT22;5620;53.570;9.718;2023-01-28T03:29:07;3.80;99.90
11132;DHT22;5620;53.570;9.718;2023-01-28T03:31:36;3.80;99.90
11132;DHT22;5620;53.570;9.718;2023-01-28T03:34:05;3.80;99.90
11132;DHT22;5620;53.570;9.718;2023-01-28T03:36:36;3.80;99.90
11132;DHT22;5620;53.570;9.718;2023-01-28T03:39:07;3.70;99.90
11132;DHT22;5620;53.570;9.718;2023-01-28T03:41:35;3.70;99.90
11132;DHT22;5620;53.570;9.718;2023-01-28T03:44:03;3.80;99.90
11132;DHT22;5620;53.570;9.718;2023-01-28T03:46:31;3.80;99.90
11132;DHT22;5620;53.570;9.718;2023-01-28T03:48:58;3.80;99.90
11132;DHT22;5620;53.570;9.718;2023-01-28T03:51:25;3.90;99.90
11132;DHT22;5620;53.570;9.718;2023-01-28T03:53:53;3.90;99.90
11132;DHT22;5620;53.570;9.718;2023-01-28T03:56:20;3.90;99.90
11132;DHT22;5620;53.570;9.718;2023-01-28T03:58:48;3.90;99.90
11132;DHT22;5620;53.570;9.718;2023-01-28T04:01:15;3.80;99.90
11132;DHT22;5620;53.570;9.718;2023-01-28T04:03:43;3.80;99.90
11132;DHT22;5620;53.570;9.718;2023-01-28T04:06:13;3.80;99.90
11132;DHT22;5620;53.570;9.718;2023-01-28T04:08:40;3.70;99.90
11132;DHT22;5620;53.570;9.718;2023-01-28T04:11:07;3.70;99.90
11132;DHT22;5620;53.570;9.718;2023-01-28T04:13:35;3.60;99.90
11132;DHT22;5620;53.570;9.718;2023-01-28T04:16:01;3.50;99.90
11132;DHT22;5620;53.570;9.718;2023-01-28T04:18:30;3.40;99.90
11132;DHT22;5620;53.570;9.718;2023-01-28T04:20:57;3.30;99.90
11132;DHT22;5620;53.570;9.718;2023-01-28T04:23:25;3.10;99.90
11132;DHT22;5620;53.570;9.718;2023-01-28T04:25:53;3.00;99.90
11132;DHT22;5620;53.570;9.718;2023-01-28T04:28:22;2.90;99.90
11132;DHT22;5620;53.570;9.718;2023-01-28T04:30:52;2.80;99.90
11132;DHT22;5620;53.570;9.718;2023-01-28T04:33:19;2.70;99.90
11132;DHT22;5620;53.570;9.718;2023-01-28T04:35:45;2.60;99.90
11132;DHT22;5620;53.570;9.718;2023-01-28T04:38:11;2.50;99.90
11132;DHT22;5620;53.570;9.718;2023-01-28T04:40:38;2.40;99.90
11132;DHT22;5620;53.570;9.718;2023-01-28T04:43:04;2.30;99.90
11132;DHT22;5620;53.570;9.718;2023-01-28T04:45:30;2.20;99.90
11132;DHT22;5620;53.570;9.718;2023-01-28T04:47:58;2.20;99.90
11132;DHT22;5620;53.570;9.718;2023-01-28T04:50:26;2.10;99.90
11132;DHT22;5620;53.570;9.718;2023-01-28T04:52:52;2.00;99.90
11132;DHT22;5620;53.570;9.718;2023-01-28T04:55:20;2.00;99.90
11132;DHT22;5620;53.570;9.718;2023-01-28T04:57:47;1.90;99.90
11132;DHT22;5620;53.570;9.718;2023-01-28T05:00:16;1.90;99.90
11132;DHT22;5620;53.570;9.718;2023-01-28T05:02:44;1.90;99.90
11132;DHT22;5620;53.570;9.718;2023-01-28T05:05:11;1.90;99.90
11132;DHT22;5620;53.570;9.718;2023-01-28T05:07:39;1.90;99.90
11132;DHT22;5620;53.570;9.718;2023-01-28T05:10:07;1.80;99.90
11132;DHT22;5620;53.570;9.718;2023-01-28T05:12:32;1.80;99.90
11132;DHT22;5620;53.570;9.718;2023-01-28T05:14:58;1.80;99.90
11132;DHT22;5620;53.570;9.718;2023-01-28T05:17:27;1.70;99.90
11132;DHT22;5620;53.570;9.718;2023-01-28T05:19:54;1.60;99.90
11132;DHT22;5620;53.570;9.718;2023-01-28T05:22:22;1.50;99.90
11132;DHT22;5620;53.570;9.718;2023-01-28T05:24:49;1.40;99.90
11132;DHT22;5620;53.570;9.718;2023-01-28T05:27:16;1.40;99.90
11132;DHT22;5620;53.570;9.718;2023-01-28T05:29:42;1.30;99.90
11132;DHT22;5620;53.570;9.718;2023-01-28T05:32:08;1.40;99.90
11132;DHT22;5620;53.570;9.718;2023-01-28T05:34:35;1.30;99.90
11132;DHT22;5620;53.570;9.718;2023-01-28T05:37:02;1.30;99.90
11132;DHT22;5620;53.570;9.718;2023-01-28T05:39:29;1.30;99.90
11132;DHT22;5620;53.570;9.718;2023-01-28T05:41:56;1.30;99.90
11132;DHT22;5620;53.570;9.718;2023-01-28T05:44:27;1.30;99.90
11132;DHT22;5620;53.570;9.718;2023-01-28T05:46:56;1.30;99.90
11132;DHT22;5620;53.570;9.718;2023-01-28T05:49:22;1.20;99.90
11132;DHT22;5620;53.570;9.718;2023-01-28T05:51:49;1.20;99.90
11132;DHT22;5620;53.570;9.718;2023-01-28T05:54:17;1.20;99.90
11132;DHT22;5620;53.570;9.718;2023-01-28T05:56:45;1.10;99.90
11132;DHT22;5620;53.570;9.718;2023-01-28T05:59:11;1.10;99.90
11132;DHT22;5620;53.570;9.718;2023-01-28T06:01:36;1.10;99.90
11132;DHT22;5620;53.570;9.718;2023-01-28T06:04:03;1.00;99.90
11132;DHT22;5620;53.570;9.718;2023-01-28T06:06:30;1.00;99.90
11132;DHT22;5620;53.570;9.718;2023-01-28T06:08:57;1.00;99.90
11132;DHT22;5620;53.570;9.718;2023-01-28T06:11:23;1.10;99.90
11132;DHT22;5620;53.570;9.718;2023-01-28T06:13:51;1.10;99.90
11132;DHT22;5620;53.570;9.718;2023-01-28T06:16:18;1.10;99.90
11132;DHT22;5620;53.570;9.718;2023-01-28T06:18:44;1.20;99.90
11132;DHT22;5620;53.570;9.718;2023-01-28T06:21:11;1.10;99.90
11132;DHT22;5620;53.570;9.718;2023-01-28T06:23:38;1.20;99.90
11132;DHT22;5620;53.570;9.718;2023-01-28T06:26:06;1.20;99.90
11132;DHT22;5620;53.570;9.718;2023-01-28T06:28:32;1.10;99.90
11132;DHT22;5620;53.570;9.718;2023-01-28T06:30:59;1.30;99.90
11132;DHT22;5620;53.570;9.718;2023-01-28T06:33:25;1.10;99.90
11132;DHT22;5620;53.570;9.718;2023-01-28T06:35:50;1.00;99.90
11132;DHT22;5620;53.570;9.718;2023-01-28T06:38:19;1.00;99.90
11132;DHT22;5620;53.570;9.718;2023-01-28T06:40:50;1.00;99.90
11132;DHT22;5620;53.570;9.718;2023-01-28T06:43:16;0.90;99.90
11132;DHT22;5620;53.570;9.718;2023-01-28T06:45:42;0.80;99.90
11132;DHT22;5620;53.570;9.718;2023-01-28T06:48:09;0.80;99.90
11132;DHT22;5620;53.570;9.718;2023-01-28T06:50:36;0.80;99.90
11132;DHT22;5620;53.570;9.718;2023-01-28T06:53:02;0.70;99.90
11132;DHT22;5620;53.570;9.718;2023-01-28T06:55:30;0.70;99.90
11132;DHT22;5620;53.570;9.718;2023-01-28T06:57:58;0.80;99.90
11132;DHT22;5620;53.570;9.718;2023-01-28T07:00:23;0.80;99.90
11132;DHT22;5620;53.570;9.718;2023-01-28T07:02:54;0.70;99.90
11132;DHT22;5620;53.570;9.718;2023-01-28T07:05:23;0.70;99.90
11132;DHT22;5620;53.570;9.718;2023-01-28T07:07:51;0.70;99.90
11132;DHT22;5620;53.570;9.718;2023-01-28T07:10:22;0.70;99.90
11132;DHT22;5620;53.570;9.718;2023-01-28T07:12:50;0.60;99.90
11132;DHT22;5620;53.570;9.718;2023-01-28T07:15:15;0.50;99.90
11132;DHT22;5620;53.570;9.718;2023-01-28T07:17:43;0.60;99.90
11132;DHT22;5620;53.570;9.718;2023-01-28T07:20:12;0.50;99.90
11132;DHT22;5620;53.570;9.718;2023-01-28T07:22:43;0.50;99.90
11132;DHT22;5620;53.570;9.718;2023-01-28T07:25:12;0.50;99.90
11132;DHT22;5620;53.570;9.718;2023-01-28T07:27:46;0.50;99.90
11132;DHT22;5620;53.570;9.718;2023-01-28T07:30:13;0.50;99.90
11132;DHT22;5620;53.570;9.718;2023-01-28T07:32:42;0.50;99.90
11132;DHT22;5620;53.570;9.718;2023-01-28T07:35:10;0.50;99.90
11132;DHT22;5620;53.570;9.718;2023-01-28T07:37:37;0.50;99.90
11132;DHT22;5620;53.570;9.718;2023-01-28T07:40:04;0.50;99.90
11132;DHT22;5620;53.570;9.718;2023-01-28T07:42:31;0.50;99.90
11132;DHT22;5620;53.570;9.718;2023-01-28T07:44:57;0.60;99.90
11132;DHT22;5620;53.570;9.718;2023-01-28T07:47:25;0.60;99.90
11132;DHT22;5620;53.570;9.718;2023-01-28T07:49:52;0.50;99.90
11132;DHT22;5620;53.570;9.718;2023-01-28T07:52:18;0.60;99.90
11132;DHT22;5620;53.570;9.718;2023-01-28T07:54:46;0.70;99.90
11132;DHT22;5620;53.570;9.718;2023-01-28T07:57:14;0.60;99.90
11132;DHT22;5620;53.570;9.718;2023-01-28T07:59:42;0.70;99.90
11132;DHT22;5620;53.570;9.718;2023-01-28T08:02:13;0.70;99.90
11132;DHT22;5620;53.570;9.718;2023-01-28T08:04:40;0.80;99.90
11132;DHT22;5620;53.570;9.718;2023-01-28T08:07:07;0.90;99.90
11132;DHT22;5620;53.570;9.718;2023-01-28T08:09:33;0.90;99.90
11132;DHT22;5620;53.570;9.718;2023-01-28T08:12:01;1.00;99.90
11132;DHT22;5620;53.570;9.718;2023-01-28T08:14:27;1.10;99.90
11132;DHT22;5620;53.570;9.718;2023-01-28T08:16:56;1.10;99.90
11132;DHT22;5620;53.570;9.718;2023-01-28T08:19:21;1.20;99.90
11132;DHT22;5620;53.570;9.718;2023-01-28T08:21:49;1.30;99.90
11132;DHT22;5620;53.570;9.718;2023-01-28T08:24:17;1.40;99.90
11132;DHT22;5620;53.570;9.718;2023-01-28T08:26:48;1.50;99.90
11132;DHT22;5620;53.570;9.718;2023-01-28T08:29:16;1.60;99.90
11132;DHT22;5620;53.570;9.718;2023-01-28T08:31:44;1.60;99.90
11132;DHT22;5620;53.570;9.718;2023-01-28T08:34:12;1.80;99.90
11132;DHT22;5620;53.570;9.718;2023-01-28T08:36:40;1.80;99.90
11132;DHT22;5620;53.570;9.718;2023-01-28T08:39:08;1.90;99.90
11132;DHT22;5620;53.570;9.718;2023-01-28T08:41:36;2.00;99.90
11132;DHT22;5620;53.570;9.718;2023-01-28T08:44:03;2.10;99.90
11132;DHT22;5620;53.570;9.718;2023-01-28T08:46:31;2.10;99.90
11132;DHT22;5620;53.570;9.718;2023-01-28T08:48:58;2.20;99.90
11132;DHT22;5620;53.570;9.718;2023-01-28T08:51:23;2.30;99.90
11132;DHT22;5620;53.570;9.718;2023-01-28T08:53:50;2.40;99.90
11132;DHT22;5620;53.570;9.718;2023-01-28T08:56:17;2.50;99.90
11132;DHT22;5620;53.570;9.718;2023-01-28T08:58:42;2.60;99.90
11132;DHT22;5620;53.570;9.718;2023-01-28T09:01:13;2.80;99.90
11132;DHT22;5620;53.570;9.718;2023-01-28T09:03:39;3.00;99.90
11132;DHT22;5620;53.570;9.718;2023-01-28T09:06:06;3.10;99.90
11132;DHT22;5620;53.570;9.718;2023-01-28T09:08:32;3.20;99.90
11132;DHT22;5620;53.570;9.718;2023-01-28T09:10:58;3.20;99.90
11132;DHT22;5620;53.570;9.718;2023-01-28T09:13:27;3.20;99.90
11132;DHT22;5620;53.570;9.718;2023-01-28T09:15:53;3.30;99.90
11132;DHT22;5620;53.570;9.718;2023-01-28T09:18:20;3.20;99.90
11132;DHT22;5620;53.570;9.718;2023-01-28T09:20:45;3.20;99.90
11132;DHT22;5620;53.570;9.718;2023-01-28T09:23:14;3.20;99.90
11132;DHT22;5620;53.570;9.718;2023-01-28T09:25:43;3.10;99.90
11132;DHT22;5620;53.570;9.718;2023-01-28T09:28:09;3.20;99.90
11132;DHT22;5620;53.570;9.718;2023-01-28T09:30:38;3.10;99.90
11132;DHT22;5620;53.570;9.718;2023-01-28T09:33:08;3.00;99.90
11132;DHT22;5620;53.570;9.718;2023-01-28T09:35:36;2.90;99.90
11132;DHT22;5620;53.570;9.718;2023-01-28T09:38:02;2.80;99.90
11132;DHT22;5620;53.570;9.718;2023-01-28T09:40:41;2.80;99.90
11132;DHT22;5620;53.570;9.718;2023-01-28T09:46:04;3.00;99.90
11132;DHT22;5620;53.570;9.718;2023-01-28T09:48:37;3.20;99.90
11132;DHT22;5620;53.570;9.718;2023-01-28T09:51:09;3.40;99.90
11132;DHT22;5620;53.570;9.718;2023-01-28T09:53:51;3.60;99.90
11132;DHT22;5620;53.570;9.718;2023-01-28T09:56:33;3.70;99.90
11132;DHT22;5620;53.570;9.718;2023-01-28T09:59:19;3.80;99.90
11132;DHT22;5620;53.570;9.718;2023-01-28T10:10:55;4.50;99.90
11132;DHT22;5620;53.570;9.718;2023-01-28T10:16:34;4.50;99.90
11132;DHT22;5620;53.570;9.718;2023-01-28T10:19:30;4.50;99.90
11132;DHT22;5620;53.570;9.718;2023-01-28T10:22:19;4.60;99.90
11132;DHT22;5620;53.570;9.718;2023-01-28T10:24:56;4.70;99.90
11132;DHT22;5620;53.570;9.718;2023-01-28T10:27:28;4.70;99.90
11132;DHT22;5620;53.570;9.718;2023-01-28T10:29:54;4.70;99.90
11132;DHT22;5620;53.570;9.718;2023-01-28T10:32:33;4.60;99.90
11132;DHT22;5620;53.570;9.718;2023-01-28T10:35:02;4.40;99.90
11132;DHT22;5620;53.570;9.718;2023-01-28T10:37:40;4.40;99.90
11132;DHT22;5620;53.570;9.718;2023-01-28T10:40:12;4.40;99.90
11132;DHT22;5620;53.570;9.718;2023-01-28T10:42:44;4.40;99.90
11132;DHT22;5620;53.570;9.718;2023-01-28T10:45:29;4.50;99.90
11132;DHT22;5620;53.570;9.718;2023-01-28T10:48:16;4.70;99.90
11132;DHT22;5620;53.570;9.718;2023-01-28T10:50:59;4.90;99.90
11132;DHT22;5620;53.570;9.718;2023-01-28T10:56:34;5.40;99.90
11132;DHT22;5620;53.570;9.718;2023-01-28T11:01:57;6.20;99.90
11132;DHT22;5620;53.570;9.718;2023-01-28T11:04:33;6.90;99.90
11132;DHT22;5620;53.570;9.718;2023-01-28T11:07:19;7.70;99.90
11132;DHT22;5620;53.570;9.718;2023-01-28T11:09:52;8.50;99.90
11132;DHT22;5620;53.570;9.718;2023-01-28T11:12:37;8.90;99.90
11132;DHT22;5620;53.570;9.718;2023-01-28T11:15:15;9.00;99.90
11132;DHT22;5620;53.570;9.718;2023-01-28T11:17:48;8.80;99.90
11132;DHT22;5620;53.570;9.718;2023-01-28T11:20:27;8.70;99.90
11132;DHT22;5620;53.570;9.718;2023-01-28T11:22:55;9.60;99.90
11132;DHT22;5620;53.570;9.718;2023-01-28T11:25:36;10.50;99.90
11132;DHT22;5620;53.570;9.718;2023-01-28T11:28:25;10.60;99.90
11132;DHT22;5620;53.570;9.718;2023-01-28T11:30:53;10.30;99.90
11132;DHT22;5620;53.570;9.718;2023-01-28T11:33:26;10.20;99.90
11132;DHT22;5620;53.570;9.718;2023-01-28T11:35:55;10.80;99.90
11132;DHT22;5620;53.570;9.718;2023-01-28T11:38:23;10.90;99.90
11132;DHT22;5620;53.570;9.718;2023-01-28T11:40:52;10.50;99.90
11132;DHT22;5620;53.570;9.718;2023-01-28T11:43:22;10.20;96.30
11132;DHT22;5620;53.570;9.718;2023-01-28T11:48:52;9.10;91.40
11132;DHT22;5620;53.570;9.718;2023-01-28T11:51:47;8.50;91.20
11132;DHT22;5620;53.570;9.718;2023-01-28T12:12:04;10.70;63.40
11132;DHT22;5620;53.570;9.718;2023-01-28T12:26:12;9.90;35.40
11132;DHT22;5620;53.570;9.718;2023-01-28T12:29:05;10.40;32.60
11132;DHT22;5620;53.570;9.718;2023-01-28T12:43:42;10.40;11.00
11132;DHT22;5620;53.570;9.718;2023-01-28T12:58:15;8.70;10.00
11132;DHT22;5620;53.570;9.718;2023-01-28T13:00:55;8.50;11.50
11132;DHT22;5620;53.570;9.718;2023-01-28T13:09:16;7.70;13.60
11132;DHT22;5620;53.570;9.718;2023-01-28T13:11:43;7.40;15.20
11132;DHT22;5620;53.570;9.718;2023-01-28T13:14:12;7.00;16.80
11132;DHT22;5620;53.570;9.718;2023-01-28T13:16:41;7.00;18.90
11132;DHT22;5620;53.570;9.718;2023-01-28T13:22:34;8.60;24.00
11132;DHT22;5620;53.570;9.718;2023-01-28T13:27:38;10.40;12.90
11132;DHT22;5620;53.570;9.718;2023-01-28T13:30:30;10.30;8.10
11132;DHT22;5620;53.570;9.718;2023-01-28T13:33:03;9.80;5.60
11132;DHT22;5620;53.570;9.718;2023-01-28T13:35:38;9.70;6.90
11132;DHT22;5620;53.570;9.718;2023-01-28T13:38:23;10.20;7.30
11132;DHT22;5620;53.570;9.718;2023-01-28T13:40:59;11.20;5.90
11132;DHT22;5620;53.570;9.718;2023-01-28T13:43:40;11.30;1.00
11132;DHT22;5620;53.570;9.718;2023-01-28T13:46:11;10.80;1.00
11132;DHT22;5620;53.570;9.718;2023-01-28T13:48:54;10.40;1.00
11132;DHT22;5620;53.570;9.718;2023-01-28T13:51:26;10.00;1.00
11132;DHT22;5620;53.570;9.718;2023-01-28T14:00:17;8.50;1.00
11132;DHT22;5620;53.570;9.718;2023-01-28T14:17:48;7.00;9.10
11132;DHT22;5620;53.570;9.718;2023-01-28T14:20:37;6.90;11.30
11132;DHT22;5620;53.570;9.718;2023-01-28T14:23:21;6.80;12.30
11132;DHT22;5620;53.570;9.718;2023-01-28T14:31:26;6.60;15.90
11132;DHT22;5620;53.570;9.718;2023-01-28T14:34:04;6.50;17.60
11132;DHT22;5620;53.570;9.718;2023-01-28T14:36:39;6.50;18.60
11132;DHT22;5620;53.570;9.718;2023-01-28T14:39:19;6.50;21.10
11132;DHT22;5620;53.570;9.718;2023-01-28T14:41:49;6.60;21.70
11132;DHT22;5620;53.570;9.718;2023-01-28T14:44:31;6.50;22.50
11132;DHT22;5620;53.570;9.718;2023-01-28T14:47:23;6.50;23.50
11132;DHT22;5620;53.570;9.718;2023-01-28T14:55:35;7.10;26.30
11132;DHT22;5620;53.570;9.718;2023-01-28T14:58:15;7.20;26.90
11132;DHT22;5620;53.570;9.718;2023-01-28T15:00:53;7.10;26.10
11132;DHT22;5620;53.570;9.718;2023-01-28T15:03:26;7.00;26.80
11132;DHT22;5620;53.570;9.718;2023-01-28T15:06:15;6.80;27.30
11132;DHT22;5620;53.570;9.718;2023-01-28T15:08:43;6.60;29.20
11132;DHT22;5620;53.570;9.718;2023-01-28T15:11:14;6.40;29.40
11132;DHT22;5620;53.570;9.718;2023-01-28T15:13:54;6.40;32.10
11132;DHT22;5620;53.570;9.718;2023-01-28T15:16:26;6.30;33.20
11132;DHT22;5620;53.570;9.718;2023-01-28T15:18:54;6.10;34.10
11132;DHT22;5620;53.570;9.718;2023-01-28T15:21:25;5.80;35.70
11132;DHT22;5620;53.570;9.718;2023-01-28T15:23:56;5.70;38.10
11132;DHT22;5620;53.570;9.718;2023-01-28T15:26:30;5.70;41.20
11132;DHT22;5620;53.570;9.718;2023-01-28T15:28:56;5.60;42.30
11132;DHT22;5620;53.570;9.718;2023-01-28T15:31:28;5.50;44.50
11132;DHT22;5620;53.570;9.718;2023-01-28T15:34:22;5.40;46.20
11132;DHT22;5620;53.570;9.718;2023-01-28T15:36:48;5.40;48.60
11132;DHT22;5620;53.570;9.718;2023-01-28T15:39:24;5.30;50.50
11132;DHT22;5620;53.570;9.718;2023-01-28T15:42:19;5.30;52.90
11132;DHT22;5620;53.570;9.718;2023-01-28T15:44:46;5.40;55.40
11132;DHT22;5620;53.570;9.718;2023-01-28T15:49:52;5.40;59.10
11132;DHT22;5620;53.570;9.718;2023-01-28T15:52:27;5.30;59.60
11132;DHT22;5620;53.570;9.718;2023-01-28T15:54:55;5.30;60.70
11132;DHT22;5620;53.570;9.718;2023-01-28T15:57:28;5.20;62.60
11132;DHT22;5620;53.570;9.718;2023-01-28T16:02:53;5.00;65.40
11132;DHT22;5620;53.570;9.718;2023-01-28T16:05:35;4.90;67.50
11132;DHT22;5620;53.570;9.718;2023-01-28T16:08:18;4.80;70.20
11132;DHT22;5620;53.570;9.718;2023-01-28T16:10:53;4.80;72.80
11132;DHT22;5620;53.570;9.718;2023-01-28T16:13:41;4.70;75.00
11132;DHT22;5620;53.570;9.718;2023-01-28T16:16:08;4.70;76.70
11132;DHT22;5620;53.570;9.718;2023-01-28T16:18:53;4.70;78.60
11132;DHT22;5620;53.570;9.718;2023-01-28T16:21:25;4.70;80.10
11132;DHT22;5620;53.570;9.718;2023-01-28T16:24:06;4.70;81.30
11132;DHT22;5620;53.570;9.718;2023-01-28T16:27:16;4.70;83.70
11132;DHT22;5620;53.570;9.718;2023-01-28T16:29:47;4.70;85.50
11132;DHT22;5620;53.570;9.718;2023-01-28T16:32:46;4.70;87.90
11132;DHT22;5620;53.570;9.718;2023-01-28T16:35:31;4.80;89.10
11132;DHT22;5620;53.570;9.718;2023-01-28T16:37:57;4.80;90.00
11132;DHT22;5620;53.570;9.718;2023-01-28T16:40:26;4.80;90.60
11132;DHT22;5620;53.570;9.718;2023-01-28T16:42:54;4.80;91.30
11132;DHT22;5620;53.570;9.718;2023-01-28T16:45:24;4.80;92.00
11132;DHT22;5620;53.570;9.718;2023-01-28T16:47:58;4.80;92.80
11132;DHT22;5620;53.570;9.718;2023-01-28T16:50:25;4.80;93.80
11132;DHT22;5620;53.570;9.718;2023-01-28T16:52:54;4.80;94.50
11132;DHT22;5620;53.570;9.718;2023-01-28T16:55:22;4.80;95.10
11132;DHT22;5620;53.570;9.718;2023-01-28T16:57:52;4.80;95.80
11132;DHT22;5620;53.570;9.718;2023-01-28T17:00:23;4.80;96.80
11132;DHT22;5620;53.570;9.718;2023-01-28T17:02:53;4.90;97.30
11132;DHT22;5620;53.570;9.718;2023-01-28T17:05:23;4.90;98.10
11132;DHT22;5620;53.570;9.718;2023-01-28T17:07:51;4.90;98.70
11132;DHT22;5620;53.570;9.718;2023-01-28T17:10:17;4.90;99.30
11132;DHT22;5620;53.570;9.718;2023-01-28T17:12:46;5.00;99.90
11132;DHT22;5620;53.570;9.718;2023-01-28T17:15:13;5.00;99.90
11132;DHT22;5620;53.570;9.718;2023-01-28T17:17:42;5.00;99.90
11132;DHT22;5620;53.570;9.718;2023-01-28T17:20:08;5.10;99.90
11132;DHT22;5620;53.570;9.718;2023-01-28T17:22:35;5.10;99.90
11132;DHT22;5620;53.570;9.718;2023-01-28T17:25:01;5.00;99.90
11132;DHT22;5620;53.570;9.718;2023-01-28T17:27:28;5.00;99.90
11132;DHT22;5620;53.570;9.718;2023-01-28T17:29:55;5.00;99.90
11132;DHT22;5620;53.570;9.718;2023-01-28T17:32:22;5.00;99.90
11132;DHT22;5620;53.570;9.718;2023-01-28T17:34:49;5.00;99.90
11132;DHT22;5620;53.570;9.718;2023-01-28T17:37:18;5.00;99.90
11132;DHT22;5620;53.570;9.718;2023-01-28T17:39:43;5.00;99.90
11132;DHT22;5620;53.570;9.718;2023-01-28T17:42:11;5.00;99.90
11132;DHT22;5620;53.570;9.718;2023-01-28T17:44:37;5.00;99.90
11132;DHT22;5620;53.570;9.718;2023-01-28T17:47:05;4.90;99.90
11132;DHT22;5620;53.570;9.718;2023-01-28T17:49:34;5.00;99.90
11132;DHT22;5620;53.570;9.718;2023-01-28T17:52:00;4.90;99.90
11132;DHT22;5620;53.570;9.718;2023-01-28T17:54:28;4.90;99.90
11132;DHT22;5620;53.570;9.718;2023-01-28T17:56:54;4.90;99.90
11132;DHT22;5620;53.570;9.718;2023-01-28T17:59:21;4.70;99.90
11132;DHT22;5620;53.570;9.718;2023-01-28T18:01:48;4.70;99.90
11132;DHT22;5620;53.570;9.718;2023-01-28T18:04:13;4.70;99.90
11132;DHT22;5620;53.570;9.718;2023-01-28T18:06:42;4.60;99.90
11132;DHT22;5620;53.570;9.718;2023-01-28T18:09:08;4.70;99.90
11132;DHT22;5620;53.570;9.718;2023-01-28T18:11:35;4.70;99.90
11132;DHT22;5620;53.570;9.718;2023-01-28T18:14:01;4.70;99.90
11132;DHT22;5620;53.570;9.718;2023-01-28T18:16:26;4.80;99.90
11132;DHT22;5620;53.570;9.718;2023-01-28T18:18:54;4.80;99.90
11132;DHT22;5620;53.570;9.718;2023-01-28T18:21:33;4.80;99.90
11132;DHT22;5620;53.570;9.718;2023-01-28T18:24:00;4.90;99.90
11132;DHT22;5620;53.570;9.718;2023-01-28T18:26:26;4.90;99.90
11132;DHT22;5620;53.570;9.718;2023-01-28T18:28:52;4.90;99.90
11132;DHT22;5620;53.570;9.718;2023-01-28T18:31:19;5.00;99.90
11132;DHT22;5620;53.570;9.718;2023-01-28T18:33:46;5.00;99.90
11132;DHT22;5620;53.570;9.718;2023-01-28T18:36:17;5.00;99.90
11132;DHT22;5620;53.570;9.718;2023-01-28T18:38:44;5.00;99.90
11132;DHT22;5620;53.570;9.718;2023-01-28T18:41:11;5.00;99.90
11132;DHT22;5620;53.570;9.718;2023-01-28T18:43:39;5.10;99.90
11132;DHT22;5620;53.570;9.718;2023-01-28T18:46:15;5.10;99.90
11132;DHT22;5620;53.570;9.718;2023-01-28T18:48:41;5.10;99.90
11132;DHT22;5620;53.570;9.718;2023-01-28T18:51:11;4.90;99.90
11132;DHT22;5620;53.570;9.718;2023-01-28T18:53:38;4.90;99.90
11132;DHT22;5620;53.570;9.718;2023-01-28T18:56:07;5.00;99.90